createdAt,value
2023-07-24T00:00:00.554Z,57.02
2023-07-24T00:05:04.076Z,56.68
2023-07-24T00:10:08.204Z,57.30
2023-07-24T00:15:13.170Z,57.54
2023-07-24T00:20:20.857Z,58.07
2023-07-24T00:25:24.324Z,57.96
2023-07-24T00:30:29.154Z,56.74
2023-07-24T00:35:32.574Z,57.49
2023-07-24T00:40:36.040Z,58.87
2023-07-24T00:45:40.940Z,57.99
2023-07-24T00:50:45.327Z,58.87
2023-07-24T00:55:49.383Z,59.03
2023-07-24T01:00:54.313Z,58.29
2023-07-24T01:05:58.299Z,58.46
2023-07-24T01:11:07.607Z,57.92
2023-07-24T01:16:16.369Z,56.48
2023-07-24T01:21:29.076Z,58.58
2023-07-24T01:26:34.574Z,59.63
2023-07-24T01:31:38.114Z,59.08
2023-07-24T01:36:41.705Z,59.36
2023-07-24T01:41:46.751Z,59.21
2023-07-24T01:46:50.222Z,59.58
2023-07-24T01:51:53.628Z,59.61
2023-07-24T01:56:58.412Z,60.29
2023-07-24T02:02:01.796Z,59.54
2023-07-24T02:07:05.861Z,58.70
2023-07-24T02:12:10.689Z,59.38
2023-07-24T02:17:14.152Z,60.48
2023-07-24T02:22:17.721Z,61.77
2023-07-24T02:27:29.957Z,58.39
2023-07-24T02:32:34.967Z,60.87
2023-07-24T02:37:38.538Z,61.12
2023-07-24T02:42:43.276Z,61.20
2023-07-24T02:47:46.853Z,61.70
2023-07-24T02:52:51.183Z,59.33
2023-07-24T02:57:56.104Z,59.22
2023-07-24T03:02:59.585Z,60.68
2023-07-24T03:08:03.273Z,60.62
2023-07-24T03:13:09.069Z,59.29
2023-07-24T03:18:12.491Z,60.68
2023-07-24T03:23:16.582Z,59.62
2023-07-24T03:28:21.438Z,60.05
2023-07-24T03:33:24.889Z,61.07
2023-07-24T03:38:28.503Z,60.90
2023-07-24T03:43:33.219Z,61.15
2023-07-24T03:48:37.667Z,61.17
2023-07-24T03:53:41.041Z,60.66
2023-07-24T03:58:45.873Z,60.51
2023-07-24T04:03:49.353Z,60.51
2023-07-24T04:08:54.017Z,60.85
2023-07-24T04:13:58.806Z,59.72
2023-07-24T04:19:02.229Z,59.70
2023-07-24T04:24:06.057Z,60.04
2023-07-24T04:29:10.834Z,59.97
2023-07-24T04:34:14.247Z,60.20
2023-07-24T04:39:17.685Z,61.74
2023-07-24T04:44:22.486Z,59.85
2023-07-24T04:49:25.930Z,61.69
2023-07-24T04:54:30.457Z,61.46
2023-07-24T04:59:35.234Z,62.72
2023-07-24T05:04:38.711Z,64.15
2023-07-24T05:09:42.146Z,64.83
2023-07-24T05:14:46.943Z,64.07
2023-07-24T05:19:50.331Z,63.79
2023-07-24T05:24:53.822Z,63.24
2023-07-24T05:29:58.624Z,62.24
2023-07-24T05:35:02.284Z,64.43
2023-07-24T05:40:07.064Z,64.11
2023-07-24T05:45:13.152Z,63.14
2023-07-24T05:50:16.618Z,63.62
2023-07-24T05:55:20.112Z,61.99
2023-07-24T06:00:25.031Z,61.81
2023-07-24T06:05:28.504Z,61.45
2023-07-24T06:10:31.934Z,61.33
2023-07-24T06:15:36.748Z,61.57
2023-07-24T06:20:40.157Z,63.00
2023-07-24T06:25:44.489Z,62.78
2023-07-24T06:30:49.221Z,63.00
2023-07-24T06:35:53.074Z,64.98
2023-07-24T06:40:56.648Z,65.03
2023-07-24T06:46:01.652Z,63.02
2023-07-24T06:51:05.312Z,60.92
2023-07-24T06:56:08.779Z,60.00
2023-07-24T07:01:13.663Z,59.28
2023-07-24T07:11:23.664Z,57.36
2023-07-24T07:16:28.660Z,56.95
2023-07-24T07:21:32.344Z,57.70
2023-07-24T07:26:35.834Z,57.46
2023-07-24T07:31:40.741Z,57.63
2023-07-24T07:36:44.307Z,57.96
2023-07-24T07:41:47.870Z,56.55
2023-07-24T07:46:52.760Z,56.96
2023-07-24T07:51:56.288Z,56.86
2023-07-24T07:56:59.748Z,58.08
2023-07-24T08:02:04.930Z,58.53
2023-07-24T08:07:08.540Z,58.63
2023-07-24T08:12:12.075Z,58.09
2023-07-24T08:17:17.183Z,60.07
2023-07-24T08:22:23.910Z,60.19
2023-07-24T08:27:27.374Z,60.25
2023-07-24T08:32:32.235Z,61.73
2023-07-24T08:37:35.656Z,61.94
2023-07-24T08:42:40.954Z,62.96
2023-07-24T08:47:46.662Z,63.78
2023-07-24T08:52:50.172Z,65.75
2023-07-24T08:57:53.957Z,65.38
2023-07-24T09:02:59.155Z,65.15
2023-07-24T09:08:02.860Z,65.24
2023-07-24T09:13:06.257Z,65.51
2023-07-24T09:18:11.572Z,64.19
2023-07-24T09:23:19.807Z,62.92
2023-07-24T09:28:27.973Z,63.09
2023-07-24T09:33:41.062Z,62.14
2023-07-24T09:38:47.057Z,61.54
2023-07-24T09:43:50.408Z,61.18
2023-07-24T09:54:08.941Z,61.00
2023-07-24T09:59:13.713Z,61.67
2023-07-24T10:04:18.896Z,61.15
2023-07-24T10:09:26.273Z,61.66
2023-07-24T10:14:32.862Z,60.84
2023-07-24T10:19:43.027Z,60.02
2023-07-24T10:24:46.382Z,57.43
2023-07-24T10:30:00.569Z,59.54
2023-07-24T10:35:10.826Z,61.58
2023-07-24T10:40:22.766Z,60.13
2023-07-24T10:45:26.194Z,62.66
2023-07-24T10:50:40.748Z,61.33
2023-07-24T10:55:44.555Z,63.06
2023-07-24T11:00:48.685Z,62.96
2023-07-24T11:05:54.187Z,63.57
2023-07-24T11:10:59.228Z,63.90
2023-07-24T11:16:07.013Z,63.70
2023-07-24T11:21:14.557Z,63.62
2023-07-24T11:26:20.877Z,63.66
2023-07-24T11:31:24.454Z,65.25
2023-07-24T11:36:29.630Z,64.56
2023-07-24T11:41:33.665Z,64.51
2023-07-24T11:46:37.520Z,65.34
2023-07-24T11:51:42.504Z,64.75
2023-07-24T11:56:46.045Z,64.38
2023-07-24T12:01:50.208Z,62.91
2023-07-24T12:06:55.073Z,62.55
2023-07-24T12:12:01.083Z,61.85
2023-07-24T12:17:11.251Z,61.92
2023-07-24T12:22:17.849Z,59.72
2023-07-24T12:27:22.176Z,61.80
2023-07-24T12:32:30.541Z,61.91
2023-07-24T12:37:36.007Z,62.76
2023-07-24T12:42:42.431Z,63.70
2023-07-24T12:47:47.584Z,64.37
2023-07-24T12:52:54.077Z,64.54
2023-07-24T12:57:58.302Z,64.35
2023-07-24T13:03:01.920Z,65.17
2023-07-24T13:08:06.930Z,64.71
2023-07-24T13:13:11.124Z,64.83
2023-07-24T13:18:27.780Z,64.91
2023-07-24T13:23:34.010Z,65.40
2023-07-24T13:28:37.484Z,65.19
2023-07-24T13:33:40.996Z,65.70
2023-07-24T13:38:45.917Z,65.75
2023-07-24T13:43:49.541Z,66.99
2023-07-24T13:48:53.015Z,68.13
2023-07-24T13:53:57.836Z,68.84
2023-07-24T13:59:01.510Z,69.04
2023-07-24T14:04:05.200Z,71.08
2023-07-24T14:09:10.439Z,66.45
2023-07-24T14:14:14.063Z,66.38
2023-07-24T14:19:18.649Z,67.77
2023-07-24T14:24:23.531Z,66.31
2023-07-24T14:29:26.992Z,62.77
2023-07-24T14:34:30.558Z,61.12
2023-07-24T14:39:35.445Z,61.15
2023-07-24T14:44:38.943Z,58.21
2023-07-24T14:49:42.364Z,56.95
2023-07-24T14:54:47.156Z,56.26
2023-07-24T14:59:50.659Z,55.29
2023-07-24T15:04:54.314Z,55.30
2023-07-24T15:09:59.336Z,53.01
2023-07-24T15:15:02.804Z,53.35
2023-07-24T15:20:09.229Z,52.41
2023-07-24T15:25:14.054Z,51.66
2023-07-24T15:30:17.569Z,50.90
2023-07-24T15:35:21.090Z,51.21
2023-07-24T15:40:25.934Z,51.89
2023-07-24T15:45:29.452Z,51.76
2023-07-24T15:50:32.904Z,52.18
2023-07-24T15:55:37.711Z,50.90
2023-07-24T16:00:41.340Z,51.42
2023-07-24T16:05:44.869Z,52.19
2023-07-24T16:10:49.618Z,53.47
2023-07-24T16:15:53.006Z,53.58
2023-07-24T16:20:56.484Z,54.87
2023-07-24T16:26:01.363Z,58.36
2023-07-24T16:31:04.775Z,59.09
2023-07-24T16:36:08.242Z,60.54
2023-07-24T16:41:13.275Z,60.23
2023-07-24T16:51:23.189Z,59.32
2023-07-24T16:56:27.992Z,61.16
2023-07-24T17:01:34.241Z,63.07
2023-07-24T17:06:38.144Z,64.80
2023-07-24T17:11:45.205Z,65.51
2023-07-24T17:16:48.881Z,65.22
2023-07-24T17:21:52.394Z,64.34
2023-07-24T17:26:57.285Z,64.70
2023-07-24T17:32:01.506Z,65.78
2023-07-24T17:37:05.336Z,63.70
2023-07-24T17:42:10.528Z,64.46
2023-07-24T17:47:13.960Z,63.40
2023-07-24T17:52:17.585Z,61.52
2023-07-24T17:57:22.612Z,61.00
2023-07-24T18:02:26.254Z,60.75
2023-07-24T18:07:29.737Z,59.91
2023-07-24T18:12:34.613Z,60.74
2023-07-24T18:17:38.068Z,60.85
2023-07-24T18:22:43.970Z,61.03
2023-07-24T18:27:48.821Z,60.18
2023-07-24T18:32:52.351Z,59.83
2023-07-24T18:37:56.839Z,60.09
2023-07-24T18:43:01.627Z,59.38
2023-07-24T18:48:05.583Z,59.57
2023-07-24T18:53:09.144Z,60.11
2023-07-24T18:58:14.422Z,60.08
2023-07-24T19:03:18.049Z,59.29
2023-07-24T19:08:21.493Z,59.71
2023-07-24T19:13:27.758Z,59.67
2023-07-24T19:18:31.247Z,59.03
2023-07-24T19:23:34.812Z,59.54
2023-07-24T19:28:39.595Z,59.75
2023-07-24T19:33:43.054Z,59.46
2023-07-24T19:38:46.714Z,59.79
2023-07-24T19:43:51.713Z,59.58
2023-07-24T19:48:55.936Z,59.75
2023-07-24T19:53:59.363Z,59.66
2023-07-24T19:59:04.269Z,59.54
2023-07-24T20:04:07.812Z,59.72
2023-07-24T20:09:11.273Z,60.12
2023-07-24T20:14:16.041Z,59.95
2023-07-24T20:19:19.438Z,59.88
2023-07-24T20:24:22.818Z,59.67
2023-07-24T20:29:27.670Z,60.00
2023-07-24T20:34:31.077Z,60.07
2023-07-24T20:39:34.515Z,60.14
2023-07-24T20:44:39.367Z,60.14
2023-07-24T20:49:42.833Z,60.21
2023-07-24T20:54:48.763Z,60.12
2023-07-24T20:59:53.566Z,60.42
2023-07-24T21:04:57.086Z,60.46
2023-07-24T21:10:00.523Z,60.41
2023-07-24T21:15:06.171Z,60.42
2023-07-24T21:20:10.317Z,60.07
2023-07-24T21:25:13.804Z,60.67
2023-07-24T21:30:19.936Z,60.57
2023-07-24T21:35:23.430Z,60.80
2023-07-24T21:40:26.884Z,60.50
2023-07-24T21:45:31.617Z,60.67
2023-07-24T21:50:35.210Z,60.78
2023-07-24T21:55:40.359Z,60.68
2023-07-24T22:00:45.241Z,60.32
2023-07-24T22:05:48.854Z,60.26
2023-07-24T22:10:52.388Z,60.35
2023-07-24T22:15:57.213Z,60.40
2023-07-24T22:21:00.741Z,60.34
2023-07-24T22:26:04.383Z,60.84
2023-07-24T22:31:12.930Z,60.22
2023-07-24T22:36:16.500Z,60.57
2023-07-24T22:41:20.041Z,60.36
2023-07-24T22:46:24.996Z,60.23
2023-07-24T22:51:28.775Z,60.55
2023-07-24T22:56:32.364Z,60.57
2023-07-24T23:01:37.130Z,60.78
2023-07-24T23:06:40.502Z,61.27
2023-07-24T23:11:44.300Z,61.93
2023-07-24T23:16:49.074Z,62.89
2023-07-24T23:21:52.562Z,63.58
2023-07-24T23:26:56.497Z,63.13
2023-07-24T23:32:01.354Z,63.17
2023-07-24T23:37:09.473Z,64.49
2023-07-24T23:42:12.937Z,64.74
2023-07-24T23:47:17.876Z,65.05
2023-07-24T23:52:21.493Z,65.29
2023-07-24T23:57:28.804Z,66.21
